createdAt,value
2022-09-29T00:04:42.410Z,1.80
2022-09-29T00:09:45.448Z,1.97
2022-09-29T00:14:48.527Z,1.50
2022-09-29T00:19:52.980Z,1.70
2022-09-29T00:24:56.027Z,1.87
2022-09-29T00:29:59.113Z,1.83
2022-09-29T00:35:03.597Z,2.53
2022-09-29T00:40:07.929Z,1.50
2022-09-29T00:45:23.111Z,1.50
2022-09-29T00:50:35.123Z,1.60
2022-09-29T00:55:40.426Z,1.60
2022-09-29T01:00:43.935Z,1.47
2022-09-29T01:05:52.736Z,1.90
2022-09-29T01:10:55.991Z,1.43
2022-09-29T01:15:59.129Z,2.27
2022-09-29T01:21:14.239Z,2.90
2022-09-29T01:27:05.976Z,1.67
2022-09-29T01:32:20.248Z,1.77
2022-09-29T01:37:32.581Z,1.80
2022-09-29T01:42:43.296Z,1.70
2022-09-29T01:47:52.202Z,3.13
2022-09-29T01:53:01.292Z,2.30
2022-09-29T01:58:07.920Z,1.80
2022-09-29T02:03:18.006Z,1.80
2022-09-29T02:08:26.917Z,2.17
2022-09-29T02:13:33.601Z,1.73
2022-09-29T02:18:43.392Z,3.13
2022-09-29T02:23:46.620Z,1.60
2022-09-29T02:28:50.262Z,1.50
2022-09-29T02:33:54.819Z,1.70
2022-09-29T02:39:03.335Z,1.50
2022-09-29T02:44:32.321Z,1.50
2022-09-29T02:49:50.652Z,2.50
2022-09-29T02:55:07.186Z,1.53
2022-09-29T03:00:13.291Z,1.50
2022-09-29T03:05:20.094Z,2.60
2022-09-29T03:10:25.831Z,1.30
2022-09-29T03:15:32.597Z,1.60
2022-09-29T03:20:37.138Z,1.33
2022-09-29T03:25:41.064Z,1.83
2022-09-29T03:30:45.123Z,3.03
2022-09-29T03:35:49.624Z,1.53
2022-09-29T03:40:53.203Z,1.33
2022-09-29T03:45:57.469Z,2.37
2022-09-29T03:51:02.117Z,1.50
2022-09-29T03:56:06.288Z,1.60
2022-09-29T04:01:09.612Z,1.60
2022-09-29T04:06:14.226Z,3.93
2022-09-29T04:11:17.338Z,2.13
2022-09-29T04:16:20.488Z,2.50
2022-09-29T04:21:25.070Z,2.53
2022-09-29T04:26:28.296Z,3.20
2022-09-29T04:31:31.468Z,2.47
2022-09-29T04:36:38.950Z,2.90
2022-09-29T04:41:42.026Z,3.50
2022-09-29T04:46:45.136Z,3.20
2022-09-29T04:51:50.181Z,3.60
2022-09-29T04:56:53.248Z,5.93
2022-09-29T05:01:56.553Z,4.20
2022-09-29T05:07:01.115Z,5.03
2022-09-29T05:12:04.325Z,3.67
2022-09-29T05:17:07.426Z,3.70
2022-09-29T05:22:11.888Z,3.43
2022-09-29T05:27:14.953Z,3.70
2022-09-29T05:32:18.089Z,3.60
2022-09-29T05:37:22.787Z,3.90
2022-09-29T05:42:27.618Z,3.00
2022-09-29T05:47:30.794Z,2.70
2022-09-29T05:52:35.301Z,4.40
2022-09-29T05:57:38.480Z,2.50
2022-09-29T06:02:41.558Z,2.13
2022-09-29T06:07:46.040Z,3.00
2022-09-29T06:12:49.159Z,2.87
2022-09-29T06:17:56.936Z,3.60
2022-09-29T06:23:01.779Z,3.30
2022-09-29T06:28:04.957Z,3.83
2022-09-29T06:33:08.098Z,3.00
2022-09-29T06:38:13.223Z,3.20
2022-09-29T06:43:16.319Z,3.30
2022-09-29T06:48:19.400Z,3.07
2022-09-29T06:53:33.861Z,2.83
2022-09-29T06:58:40.378Z,3.23
2022-09-29T07:03:43.474Z,3.50
2022-09-29T07:08:47.999Z,4.03
2022-09-29T07:13:54.388Z,3.90
2022-09-29T07:18:57.907Z,3.50
2022-09-29T07:24:02.914Z,3.47
2022-09-29T07:29:06.156Z,4.20
2022-09-29T07:34:09.232Z,3.30
2022-09-29T07:39:13.656Z,4.30
2022-09-29T07:44:16.777Z,3.93
2022-09-29T07:49:20.190Z,6.63
2022-09-29T07:54:29.325Z,3.77
2022-09-29T07:59:33.059Z,4.00
2022-09-29T08:04:36.378Z,4.73
2022-09-29T08:09:41.596Z,4.00
2022-09-29T08:14:44.742Z,3.87
2022-09-29T08:19:48.387Z,4.33
2022-09-29T08:24:52.893Z,3.90
2022-09-29T08:29:57.100Z,4.13
2022-09-29T08:35:00.204Z,3.37
2022-09-29T08:40:05.018Z,3.80
2022-09-29T08:45:16.625Z,3.60
2022-09-29T08:50:28.243Z,3.00
2022-09-29T08:55:42.559Z,3.17
2022-09-29T09:01:01.853Z,3.87
2022-09-29T09:06:15.576Z,4.33
2022-09-29T09:11:33.824Z,3.50
2022-09-29T09:16:46.694Z,2.83
2022-09-29T09:21:56.117Z,2.93
2022-09-29T09:27:00.808Z,3.47
2022-09-29T09:32:08.957Z,2.63
2022-09-29T09:37:17.372Z,2.37
2022-09-29T09:42:26.046Z,3.10
2022-09-29T09:47:32.277Z,2.63
2022-09-29T09:52:42.881Z,3.07
2022-09-29T09:58:02.572Z,2.43
2022-09-29T10:03:07.480Z,2.03
2022-09-29T10:08:22.666Z,2.60
2022-09-29T10:13:28.912Z,2.40
2022-09-29T10:18:41.185Z,3.17
2022-09-29T10:23:52.714Z,2.20
2022-09-29T10:29:01.781Z,1.80
2022-09-29T10:34:17.403Z,2.10
2022-09-29T10:39:45.134Z,2.10
2022-09-29T10:44:53.479Z,1.70
2022-09-29T10:50:14.087Z,1.80
2022-09-29T10:55:19.993Z,1.80
2022-09-29T11:00:30.806Z,1.80
2022-09-29T11:05:34.589Z,1.77
2022-09-29T11:10:39.411Z,1.60
2022-09-29T11:15:43.846Z,1.50
2022-09-29T11:20:50.913Z,1.83
2022-09-29T11:26:13.680Z,1.60
2022-09-29T11:31:36.208Z,1.97
2022-09-29T11:36:48.493Z,2.27
2022-09-29T11:42:02.206Z,1.63
2022-09-29T11:47:18.055Z,3.10
2022-09-29T11:52:48.342Z,1.63
2022-09-29T11:57:59.291Z,1.73
2022-09-29T12:03:35.467Z,1.30
2022-09-29T12:08:54.086Z,1.80
2022-09-29T12:14:04.646Z,2.13
2022-09-29T12:19:13.209Z,3.03
2022-09-29T12:24:19.560Z,1.73
2022-09-29T12:29:34.605Z,1.80
2022-09-29T12:34:45.810Z,1.70
2022-09-29T12:40:00.446Z,1.70
2022-09-29T12:45:11.178Z,1.53
2022-09-29T12:50:21.137Z,1.90
2022-09-29T12:55:30.825Z,1.60
2022-09-29T13:00:37.751Z,1.93
2022-09-29T13:06:16.134Z,1.57
2022-09-29T13:12:02.039Z,3.13
2022-09-29T13:17:23.713Z,1.63
2022-09-29T13:22:43.597Z,1.30
2022-09-29T13:27:47.941Z,1.30
2022-09-29T13:33:01.277Z,1.20
2022-09-29T13:38:08.542Z,1.43
2022-09-29T13:43:38.701Z,7.73
2022-09-29T13:48:55.623Z,3.10
2022-09-29T13:54:34.921Z,13.77
2022-09-29T13:59:39.648Z,3.50
2022-09-29T14:04:53.183Z,2.37
2022-09-29T14:15:09.644Z,1.40
2022-09-29T14:20:20.687Z,1.63
2022-09-29T14:25:56.562Z,1.47
2022-09-29T14:31:03.010Z,2.33
2022-09-29T14:36:11.691Z,1.37
2022-09-29T14:41:26.583Z,2.07
2022-09-29T14:47:09.272Z,2.30
2022-09-29T14:52:23.276Z,1.30
2022-09-29T14:57:50.431Z,1.20
2022-09-29T15:03:05.011Z,0.90
2022-09-29T15:08:28.855Z,2.87
2022-09-29T15:13:32.570Z,1.13
2022-09-29T15:18:59.105Z,1.20
2022-09-29T15:24:16.059Z,1.47
2022-09-29T15:29:20.528Z,1.83
2022-09-29T15:34:26.525Z,1.47
2022-09-29T15:39:45.189Z,1.13
2022-09-29T15:44:55.231Z,1.37
2022-09-29T15:49:59.747Z,1.60
2022-09-29T15:55:02.881Z,1.70
2022-09-29T16:00:07.197Z,2.20
2022-09-29T16:05:15.676Z,2.63
2022-09-29T16:10:21.175Z,2.00
2022-09-29T16:15:31.199Z,5.67
2022-09-29T16:20:36.974Z,3.10
2022-09-29T16:25:40.114Z,2.80
2022-09-29T16:31:03.070Z,3.03
2022-09-29T16:36:13.155Z,4.53
2022-09-29T16:41:21.895Z,5.80
2022-09-29T16:46:27.016Z,4.63
2022-09-29T16:51:40.235Z,3.97
2022-09-29T16:56:45.427Z,5.93
2022-09-29T17:01:49.326Z,3.90
2022-09-29T17:06:54.275Z,4.40
2022-09-29T17:11:59.907Z,2.47
2022-09-29T17:17:04.340Z,2.23
2022-09-29T17:22:25.189Z,3.07
2022-09-29T17:27:46.449Z,2.47
2022-09-29T17:32:50.332Z,2.53
2022-09-29T17:37:55.372Z,2.20
2022-09-29T17:43:00.439Z,6.83
2022-09-29T17:48:05.084Z,2.57
2022-09-29T17:53:11.584Z,2.30
2022-09-29T17:58:16.226Z,2.97
2022-09-29T18:03:20.823Z,3.53
2022-09-29T18:08:27.540Z,3.80
2022-09-29T18:13:32.428Z,3.80
2022-09-29T18:18:37.230Z,4.23
2022-09-29T18:23:42.298Z,6.27
2022-09-29T18:28:48.873Z,3.83
2022-09-29T18:33:52.246Z,4.53
2022-09-29T18:38:56.743Z,4.00
2022-09-29T18:49:25.589Z,6.00
2022-09-29T18:54:31.662Z,6.07
2022-09-29T18:59:35.453Z,6.70
2022-09-29T19:04:39.499Z,7.40
2022-09-29T19:09:44.186Z,6.90
2022-09-29T19:20:04.843Z,7.33
2022-09-29T19:31:57.633Z,4.80
2022-09-29T19:37:01.001Z,4.90
2022-09-29T19:42:05.627Z,5.10
2022-09-29T19:47:09.258Z,6.30
2022-09-29T19:52:12.552Z,6.40
2022-09-29T19:57:18.459Z,7.63
2022-09-29T20:02:22.992Z,6.90
2022-09-29T20:07:26.098Z,6.57
2022-09-29T20:12:30.606Z,7.13
2022-09-29T20:17:33.864Z,6.30
2022-09-29T20:22:40.195Z,7.00
2022-09-29T20:27:44.724Z,4.97
2022-09-29T20:32:48.013Z,5.23
2022-09-29T20:37:51.186Z,4.60
2022-09-29T20:42:55.637Z,6.47
2022-09-29T20:47:58.706Z,5.70
2022-09-29T20:53:01.779Z,5.70
2022-09-29T20:58:06.661Z,5.80
2022-09-29T21:03:09.850Z,5.10
2022-09-29T21:08:13.146Z,9.07
2022-09-29T21:13:20.351Z,8.80
2022-09-29T21:18:23.456Z,11.30
2022-09-29T21:23:27.394Z,7.57
2022-09-29T21:28:32.365Z,6.80
2022-09-29T21:33:37.059Z,4.80
2022-09-29T21:38:43.211Z,5.50
2022-09-29T21:43:48.092Z,8.17
2022-09-29T21:48:52.893Z,5.13
2022-09-29T21:53:57.654Z,5.53
2022-09-29T21:59:02.273Z,5.67
2022-09-29T22:04:05.348Z,5.40
2022-09-29T22:09:10.178Z,6.43
2022-09-29T22:14:16.215Z,5.17
2022-09-29T22:19:24.034Z,5.47
2022-09-29T22:24:28.369Z,5.03
2022-09-29T22:29:32.835Z,4.73
2022-09-29T22:34:36.005Z,6.10
2022-09-29T22:39:39.171Z,4.40
2022-09-29T22:44:43.617Z,4.83
2022-09-29T22:49:46.677Z,5.23
2022-09-29T22:54:49.805Z,4.33
2022-09-29T22:59:54.247Z,4.90
2022-09-29T23:04:57.444Z,5.20
2022-09-29T23:10:00.510Z,4.90
2022-09-29T23:15:05.575Z,5.33
2022-09-29T23:20:09.733Z,4.60
2022-09-29T23:25:12.947Z,3.90
2022-09-29T23:30:17.643Z,4.40
2022-09-29T23:35:20.751Z,4.40
2022-09-29T23:40:24.544Z,4.13
2022-09-29T23:45:29.019Z,3.93
2022-09-29T23:50:33.015Z,3.27
2022-09-29T23:55:36.446Z,3.30
